sensor_id;sensor_type;location;lat;lon;timestamp;temperature;humidity
52397;DHT22;38322;53.108;6.308;2023-07-31T05:00:46;15.90;99.90
52397;DHT22;38322;53.108;6.308;2023-07-31T05:03:12;15.80;99.90
52397;DHT22;38322;53.108;6.308;2023-07-31T05:05:38;15.80;99.90
52397;DHT22;38322;53.108;6.308;2023-07-31T05:08:04;15.80;99.90
52397;DHT22;38322;53.108;6.308;2023-07-31T05:10:30;15.80;99.90
52397;DHT22;38322;53.108;6.308;2023-07-31T05:12:56;15.80;99.90
52397;DHT22;38322;53.108;6.308;2023-07-31T05:15:21;15.80;99.90
52397;DHT22;38322;53.108;6.308;2023-07-31T05:17:47;15.80;99.90
52397;DHT22;38322;53.108;6.308;2023-07-31T05:20:13;15.70;99.90
52397;DHT22;38322;53.108;6.308;2023-07-31T05:22:40;15.80;99.90
52397;DHT22;38322;53.108;6.308;2023-07-31T05:25:06;15.80;99.90
52397;DHT22;38322;53.108;6.308;2023-07-31T05:27:32;15.80;99.90
52397;DHT22;38322;53.108;6.308;2023-07-31T05:29:58;15.80;99.90
52397;DHT22;38322;53.108;6.308;2023-07-31T05:32:24;15.90;99.90
52397;DHT22;38322;53.108;6.308;2023-07-31T05:34:53;15.80;99.90
52397;DHT22;38322;53.108;6.308;2023-07-31T05:37:19;15.90;99.90
52397;DHT22;38322;53.108;6.308;2023-07-31T05:39:45;15.90;99.90
52397;DHT22;38322;53.108;6.308;2023-07-31T05:42:11;15.80;99.90
52397;DHT22;38322;53.108;6.308;2023-07-31T05:44:37;15.80;99.90
52397;DHT22;38322;53.108;6.308;2023-07-31T05:47:03;15.90;99.90
52397;DHT22;38322;53.108;6.308;2023-07-31T05:49:29;15.90;99.90
52397;DHT22;38322;53.108;6.308;2023-07-31T05:51:55;15.90;99.90
52397;DHT22;38322;53.108;6.308;2023-07-31T05:54:20;16.00;99.90
52397;DHT22;38322;53.108;6.308;2023-07-31T05:56:46;16.00;99.90
52397;DHT22;38322;53.108;6.308;2023-07-31T05:59:12;16.00;99.90
52397;DHT22;38322;53.108;6.308;2023-07-31T06:01:39;16.10;99.90
52397;DHT22;38322;53.108;6.308;2023-07-31T06:04:05;16.10;99.90
52397;DHT22;38322;53.108;6.308;2023-07-31T06:06:31;16.20;99.90
52397;DHT22;38322;53.108;6.308;2023-07-31T06:08:57;16.20;99.90
52397;DHT22;38322;53.108;6.308;2023-07-31T06:11:22;16.20;99.90
52397;DHT22;38322;53.108;6.308;2023-07-31T06:13:48;16.30;99.90
52397;DHT22;38322;53.108;6.308;2023-07-31T06:16:16;16.40;99.90
52397;DHT22;38322;53.108;6.308;2023-07-31T06:18:42;16.40;99.90
52397;DHT22;38322;53.108;6.308;2023-07-31T06:21:09;16.40;99.90
52397;DHT22;38322;53.108;6.308;2023-07-31T06:23:35;16.50;99.90
52397;DHT22;38322;53.108;6.308;2023-07-31T06:26:01;16.50;99.90
52397;DHT22;38322;53.108;6.308;2023-07-31T06:28:28;16.60;99.90
52397;DHT22;38322;53.108;6.308;2023-07-31T06:30:55;16.60;99.90
52397;DHT22;38322;53.108;6.308;2023-07-31T06:33:20;16.70;99.90
52397;DHT22;38322;53.108;6.308;2023-07-31T06:35:46;16.80;99.90
52397;DHT22;38322;53.108;6.308;2023-07-31T06:38:12;16.80;99.90
52397;DHT22;38322;53.108;6.308;2023-07-31T06:40:38;16.90;99.90
52397;DHT22;38322;53.108;6.308;2023-07-31T06:43:04;16.80;99.90
52397;DHT22;38322;53.108;6.308;2023-07-31T06:45:36;16.80;99.90
52397;DHT22;38322;53.108;6.308;2023-07-31T06:48:03;16.90;99.90
52397;DHT22;38322;53.108;6.308;2023-07-31T06:50:32;17.00;99.90
52397;DHT22;38322;53.108;6.308;2023-07-31T06:52:59;17.00;99.90
52397;DHT22;38322;53.108;6.308;2023-07-31T06:55:25;17.00;99.90
52397;DHT22;38322;53.108;6.308;2023-07-31T06:57:53;17.00;99.90
52397;DHT22;38322;53.108;6.308;2023-07-31T07:00:20;17.00;99.90
52397;DHT22;38322;53.108;6.308;2023-07-31T07:02:46;17.00;99.90
52397;DHT22;38322;53.108;6.308;2023-07-31T07:05:16;17.00;99.90
52397;DHT22;38322;53.108;6.308;2023-07-31T07:07:43;17.00;99.90
52397;DHT22;38322;53.108;6.308;2023-07-31T07:10:10;17.00;99.90
52397;DHT22;38322;53.108;6.308;2023-07-31T07:12:36;17.00;99.90
52397;DHT22;38322;53.108;6.308;2023-07-31T07:15:02;17.00;99.90
52397;DHT22;38322;53.108;6.308;2023-07-31T07:17:29;16.90;99.90
52397;DHT22;38322;53.108;6.308;2023-07-31T07:19:59;16.90;99.90
52397;DHT22;38322;53.108;6.308;2023-07-31T07:22:25;16.80;99.90
52397;DHT22;38322;53.108;6.308;2023-07-31T07:24:52;16.80;99.90
52397;DHT22;38322;53.108;6.308;2023-07-31T07:27:18;16.80;99.90
52397;DHT22;38322;53.108;6.308;2023-07-31T07:29:45;16.80;99.90
52397;DHT22;38322;53.108;6.308;2023-07-31T07:32:10;16.90;99.90
52397;DHT22;38322;53.108;6.308;2023-07-31T07:34:37;16.90;99.90
52397;DHT22;38322;53.108;6.308;2023-07-31T07:37:03;16.90;99.90
52397;DHT22;38322;53.108;6.308;2023-07-31T07:39:29;16.90;99.90
52397;DHT22;38322;53.108;6.308;2023-07-31T07:41:55;17.00;99.90
52397;DHT22;38322;53.108;6.308;2023-07-31T07:44:21;17.00;99.90
52397;DHT22;38322;53.108;6.308;2023-07-31T07:46:47;17.00;99.90
52397;DHT22;38322;53.108;6.308;2023-07-31T07:49:13;17.00;99.90
52397;DHT22;38322;53.108;6.308;2023-07-31T07:51:38;17.00;99.90
52397;DHT22;38322;53.108;6.308;2023-07-31T07:54:04;17.00;99.90
52397;DHT22;38322;53.108;6.308;2023-07-31T07:56:30;17.00;99.90
52397;DHT22;38322;53.108;6.308;2023-07-31T07:58:56;17.00;99.90
52397;DHT22;38322;53.108;6.308;2023-07-31T08:01:22;17.00;99.90
52397;DHT22;38322;53.108;6.308;2023-07-31T08:03:48;17.10;99.90
52397;DHT22;38322;53.108;6.308;2023-07-31T08:06:14;17.10;99.90
52397;DHT22;38322;53.108;6.308;2023-07-31T08:08:40;17.20;99.90
52397;DHT22;38322;53.108;6.308;2023-07-31T08:11:06;17.20;99.90
52397;DHT22;38322;53.108;6.308;2023-07-31T08:13:32;17.30;99.90
52397;DHT22;38322;53.108;6.308;2023-07-31T08:15:58;17.30;99.90
52397;DHT22;38322;53.108;6.308;2023-07-31T08:18:24;17.30;99.90
52397;DHT22;38322;53.108;6.308;2023-07-31T08:20:50;17.30;99.90
52397;DHT22;38322;53.108;6.308;2023-07-31T08:23:16;17.30;99.90
52397;DHT22;38322;53.108;6.308;2023-07-31T08:25:41;17.40;99.90
52397;DHT22;38322;53.108;6.308;2023-07-31T08:28:07;17.40;99.90
52397;DHT22;38322;53.108;6.308;2023-07-31T08:30:33;17.40;99.90
52397;DHT22;38322;53.108;6.308;2023-07-31T08:33:00;17.40;99.90
52397;DHT22;38322;53.108;6.308;2023-07-31T08:35:26;17.50;99.90
52397;DHT22;38322;53.108;6.308;2023-07-31T08:37:55;17.50;99.90
52397;DHT22;38322;53.108;6.308;2023-07-31T08:40:21;17.60;99.90
52397;DHT22;38322;53.108;6.308;2023-07-31T08:42:52;17.70;99.90
52397;DHT22;38322;53.108;6.308;2023-07-31T08:45:19;17.60;99.90
52397;DHT22;38322;53.108;6.308;2023-07-31T08:47:48;17.60;99.90
52397;DHT22;38322;53.108;6.308;2023-07-31T08:50:15;17.60;99.90
52397;DHT22;38322;53.108;6.308;2023-07-31T08:52:41;17.60;99.90
52397;DHT22;38322;53.108;6.308;2023-07-31T08:55:08;17.50;99.90
52397;DHT22;38322;53.108;6.308;2023-07-31T08:57:36;17.60;99.90
52397;DHT22;38322;53.108;6.308;2023-07-31T09:00:03;17.50;99.90
52397;DHT22;38322;53.108;6.308;2023-07-31T09:02:38;17.60;99.90
52397;DHT22;38322;53.108;6.308;2023-07-31T09:05:07;17.60;99.90
52397;DHT22;38322;53.108;6.308;2023-07-31T09:07:35;17.70;99.90
52397;DHT22;38322;53.108;6.308;2023-07-31T09:10:02;17.70;99.90
52397;DHT22;38322;53.108;6.308;2023-07-31T09:12:28;17.70;99.90
52397;DHT22;38322;53.108;6.308;2023-07-31T09:14:55;17.80;99.90
52397;DHT22;38322;53.108;6.308;2023-07-31T09:17:32;17.80;99.90
52397;DHT22;38322;53.108;6.308;2023-07-31T09:22:38;17.90;99.90
52397;DHT22;38322;53.108;6.308;2023-07-31T09:25:22;18.00;99.90
52397;DHT22;38322;53.108;6.308;2023-07-31T09:30:20;18.00;99.90
52397;DHT22;38322;53.108;6.308;2023-07-31T09:32:47;18.10;99.90
52397;DHT22;38322;53.108;6.308;2023-07-31T09:35:34;18.00;99.90
52397;DHT22;38322;53.108;6.308;2023-07-31T09:38:04;18.00;99.90
52397;DHT22;38322;53.108;6.308;2023-07-31T09:40:32;18.00;99.90
52397;DHT22;38322;53.108;6.308;2023-07-31T09:43:00;18.00;99.90
52397;DHT22;38322;53.108;6.308;2023-07-31T09:45:26;18.10;99.90
52397;DHT22;38322;53.108;6.308;2023-07-31T09:47:54;18.10;99.90
52397;DHT22;38322;53.108;6.308;2023-07-31T09:50:21;18.10;99.90
52397;DHT22;38322;53.108;6.308;2023-07-31T09:52:47;18.20;99.90
52397;DHT22;38322;53.108;6.308;2023-07-31T09:55:13;18.20;99.90
52397;DHT22;38322;53.108;6.308;2023-07-31T09:57:45;18.20;99.90
52397;DHT22;38322;53.108;6.308;2023-07-31T10:00:13;18.20;99.90
52397;DHT22;38322;53.108;6.308;2023-07-31T10:02:39;18.20;99.90
52397;DHT22;38322;53.108;6.308;2023-07-31T10:05:06;18.30;99.90
52397;DHT22;38322;53.108;6.308;2023-07-31T10:07:37;18.30;99.90
52397;DHT22;38322;53.108;6.308;2023-07-31T10:10:08;18.20;99.90
52397;DHT22;38322;53.108;6.308;2023-07-31T10:12:38;18.20;99.90
52397;DHT22;38322;53.108;6.308;2023-07-31T10:15:04;18.10;99.90
52397;DHT22;38322;53.108;6.308;2023-07-31T10:17:32;18.00;99.90
52397;DHT22;38322;53.108;6.308;2023-07-31T10:19:59;18.00;99.90
52397;DHT22;38322;53.108;6.308;2023-07-31T10:22:27;18.00;99.90
52397;DHT22;38322;53.108;6.308;2023-07-31T10:24:54;18.00;99.90
52397;DHT22;38322;53.108;6.308;2023-07-31T10:27:23;18.10;99.90
52397;DHT22;38322;53.108;6.308;2023-07-31T10:29:49;18.10;99.90
52397;DHT22;38322;53.108;6.308;2023-07-31T10:32:16;18.20;99.90
52397;DHT22;38322;53.108;6.308;2023-07-31T10:34:43;18.30;99.90
52397;DHT22;38322;53.108;6.308;2023-07-31T10:37:29;18.40;99.90
52397;DHT22;38322;53.108;6.308;2023-07-31T10:42:36;18.80;99.90
52397;DHT22;38322;53.108;6.308;2023-07-31T10:45:05;18.80;99.90
52397;DHT22;38322;53.108;6.308;2023-07-31T10:47:39;18.80;99.90
52397;DHT22;38322;53.108;6.308;2023-07-31T10:50:18;18.80;99.90
52397;DHT22;38322;53.108;6.308;2023-07-31T10:52:51;18.70;99.90
52397;DHT22;38322;53.108;6.308;2023-07-31T10:55:27;18.70;99.90
52397;DHT22;38322;53.108;6.308;2023-07-31T10:57:54;18.60;99.90
52397;DHT22;38322;53.108;6.308;2023-07-31T11:00:23;18.60;99.90
52397;DHT22;38322;53.108;6.308;2023-07-31T11:08:27;18.70;99.90
52397;DHT22;38322;53.108;6.308;2023-07-31T11:11:14;18.70;99.90
52397;DHT22;38322;53.108;6.308;2023-07-31T11:13:46;18.60;99.90
52397;DHT22;38322;53.108;6.308;2023-07-31T11:16:15;18.70;99.90
52397;DHT22;38322;53.108;6.308;2023-07-31T11:18:43;18.70;99.90
52397;DHT22;38322;53.108;6.308;2023-07-31T11:21:17;18.80;99.90
52397;DHT22;38322;53.108;6.308;2023-07-31T11:23:53;18.80;99.90
52397;DHT22;38322;53.108;6.308;2023-07-31T11:26:23;18.80;99.90
52397;DHT22;38322;53.108;6.308;2023-07-31T11:28:50;18.80;99.90
52397;DHT22;38322;53.108;6.308;2023-07-31T11:31:17;18.90;99.90
52397;DHT22;38322;53.108;6.308;2023-07-31T11:33:43;19.10;99.90
52397;DHT22;38322;53.108;6.308;2023-07-31T11:36:20;19.40;99.90
52397;DHT22;38322;53.108;6.308;2023-07-31T11:38:46;19.50;99.90
52397;DHT22;38322;53.108;6.308;2023-07-31T11:41:14;19.40;99.90
52397;DHT22;38322;53.108;6.308;2023-07-31T11:43:41;19.40;99.90
52397;DHT22;38322;53.108;6.308;2023-07-31T11:46:07;19.20;99.90
52397;DHT22;38322;53.108;6.308;2023-07-31T11:48:35;19.20;99.90
52397;DHT22;38322;53.108;6.308;2023-07-31T11:51:06;19.00;99.90
52397;DHT22;38322;53.108;6.308;2023-07-31T11:53:49;18.90;99.90
52397;DHT22;38322;53.108;6.308;2023-07-31T11:56:18;19.00;99.90
52397;DHT22;38322;53.108;6.308;2023-07-31T11:58:47;19.10;99.90
52397;DHT22;38322;53.108;6.308;2023-07-31T12:01:18;19.20;99.90
52397;DHT22;38322;53.108;6.308;2023-07-31T12:03:46;19.20;99.90
52397;DHT22;38322;53.108;6.308;2023-07-31T12:06:13;19.30;99.90
52397;DHT22;38322;53.108;6.308;2023-07-31T12:08:38;19.40;99.90
52397;DHT22;38322;53.108;6.308;2023-07-31T12:11:06;19.30;99.90
52397;DHT22;38322;53.108;6.308;2023-07-31T12:13:33;19.40;99.90
52397;DHT22;38322;53.108;6.308;2023-07-31T12:16:03;19.40;99.90
52397;DHT22;38322;53.108;6.308;2023-07-31T12:18:36;19.30;99.90
52397;DHT22;38322;53.108;6.308;2023-07-31T12:21:04;19.20;99.90
52397;DHT22;38322;53.108;6.308;2023-07-31T12:23:31;19.20;99.90
52397;DHT22;38322;53.108;6.308;2023-07-31T12:26:02;19.00;99.90
52397;DHT22;38322;53.108;6.308;2023-07-31T12:28:28;18.90;99.90
52397;DHT22;38322;53.108;6.308;2023-07-31T12:30:57;18.70;99.90
52397;DHT22;38322;53.108;6.308;2023-07-31T12:33:35;18.80;99.90
52397;DHT22;38322;53.108;6.308;2023-07-31T12:36:02;18.70;99.90
52397;DHT22;38322;53.108;6.308;2023-07-31T12:38:30;18.70;99.90
52397;DHT22;38322;53.108;6.308;2023-07-31T12:40:56;18.70;99.90
52397;DHT22;38322;53.108;6.308;2023-07-31T12:43:22;18.70;99.90
52397;DHT22;38322;53.108;6.308;2023-07-31T12:45:49;18.70;99.90
52397;DHT22;38322;53.108;6.308;2023-07-31T12:48:14;18.60;99.90
52397;DHT22;38322;53.108;6.308;2023-07-31T12:50:40;18.60;99.90
52397;DHT22;38322;53.108;6.308;2023-07-31T12:53:06;18.60;99.90
52397;DHT22;38322;53.108;6.308;2023-07-31T12:55:33;18.60;99.90
52397;DHT22;38322;53.108;6.308;2023-07-31T12:58:00;18.60;99.90
52397;DHT22;38322;53.108;6.308;2023-07-31T13:00:27;18.60;99.90
52397;DHT22;38322;53.108;6.308;2023-07-31T13:02:52;18.60;99.90
52397;DHT22;38322;53.108;6.308;2023-07-31T13:05:18;18.70;99.90
52397;DHT22;38322;53.108;6.308;2023-07-31T13:07:46;18.70;99.90
52397;DHT22;38322;53.108;6.308;2023-07-31T13:10:12;18.80;99.90
52397;DHT22;38322;53.108;6.308;2023-07-31T13:12:40;18.80;99.90
52397;DHT22;38322;53.108;6.308;2023-07-31T13:15:06;18.90;99.90
52397;DHT22;38322;53.108;6.308;2023-07-31T13:17:33;18.90;99.90
52397;DHT22;38322;53.108;6.308;2023-07-31T13:19:59;19.00;99.90
52397;DHT22;38322;53.108;6.308;2023-07-31T13:22:25;19.00;99.90
52397;DHT22;38322;53.108;6.308;2023-07-31T13:24:51;19.00;99.90
52397;DHT22;38322;53.108;6.308;2023-07-31T13:27:16;19.00;99.90
52397;DHT22;38322;53.108;6.308;2023-07-31T13:29:45;19.00;99.90
52397;DHT22;38322;53.108;6.308;2023-07-31T13:32:11;19.00;99.90
52397;DHT22;38322;53.108;6.308;2023-07-31T13:34:36;19.00;99.90
52397;DHT22;38322;53.108;6.308;2023-07-31T13:37:03;19.00;99.90
52397;DHT22;38322;53.108;6.308;2023-07-31T13:39:29;19.10;99.90
52397;DHT22;38322;53.108;6.308;2023-07-31T13:41:54;19.20;99.90
52397;DHT22;38322;53.108;6.308;2023-07-31T13:44:21;19.20;99.90
52397;DHT22;38322;53.108;6.308;2023-07-31T13:46:46;19.30;99.90
52397;DHT22;38322;53.108;6.308;2023-07-31T13:49:12;19.40;99.90
52397;DHT22;38322;53.108;6.308;2023-07-31T13:51:38;19.50;99.90
52397;DHT22;38322;53.108;6.308;2023-07-31T13:54:05;19.50;99.90
52397;DHT22;38322;53.108;6.308;2023-07-31T13:56:32;19.50;99.90
52397;DHT22;38322;53.108;6.308;2023-07-31T13:58:58;19.50;99.90
52397;DHT22;38322;53.108;6.308;2023-07-31T14:01:24;19.50;99.90
52397;DHT22;38322;53.108;6.308;2023-07-31T14:03:50;19.40;99.90
52397;DHT22;38322;53.108;6.308;2023-07-31T14:06:15;19.40;99.90
52397;DHT22;38322;53.108;6.308;2023-07-31T14:08:41;19.40;99.90
52397;DHT22;38322;53.108;6.308;2023-07-31T14:11:07;19.40;99.90
52397;DHT22;38322;53.108;6.308;2023-07-31T14:13:33;19.40;99.90
52397;DHT22;38322;53.108;6.308;2023-07-31T14:15:59;19.30;99.90
52397;DHT22;38322;53.108;6.308;2023-07-31T14:18:25;19.30;99.90
52397;DHT22;38322;53.108;6.308;2023-07-31T14:20:51;19.30;99.90
52397;DHT22;38322;53.108;6.308;2023-07-31T14:23:17;19.40;99.90
52397;DHT22;38322;53.108;6.308;2023-07-31T14:25:43;19.40;99.90
52397;DHT22;38322;53.108;6.308;2023-07-31T14:28:09;19.40;99.90
52397;DHT22;38322;53.108;6.308;2023-07-31T14:30:34;19.40;99.90
52397;DHT22;38322;53.108;6.308;2023-07-31T14:33:01;19.30;99.90
52397;DHT22;38322;53.108;6.308;2023-07-31T14:35:28;19.30;99.90
52397;DHT22;38322;53.108;6.308;2023-07-31T14:37:54;19.20;99.90
52397;DHT22;38322;53.108;6.308;2023-07-31T14:40:20;19.20;99.90
52397;DHT22;38322;53.108;6.308;2023-07-31T14:42:45;19.20;99.90
52397;DHT22;38322;53.108;6.308;2023-07-31T14:45:11;19.10;99.90
52397;DHT22;38322;53.108;6.308;2023-07-31T14:47:37;19.10;99.90
52397;DHT22;38322;53.108;6.308;2023-07-31T14:50:04;19.10;99.90
52397;DHT22;38322;53.108;6.308;2023-07-31T14:52:30;19.10;99.90
52397;DHT22;38322;53.108;6.308;2023-07-31T14:54:56;19.00;99.90
52397;DHT22;38322;53.108;6.308;2023-07-31T14:57:22;19.00;99.90
52397;DHT22;38322;53.108;6.308;2023-07-31T14:59:48;19.00;99.90
52397;DHT22;38322;53.108;6.308;2023-07-31T15:02:15;19.00;99.90
52397;DHT22;38322;53.108;6.308;2023-07-31T15:04:41;19.00;99.90
52397;DHT22;38322;53.108;6.308;2023-07-31T15:07:07;19.00;99.90
52397;DHT22;38322;53.108;6.308;2023-07-31T15:09:33;19.00;99.90
52397;DHT22;38322;53.108;6.308;2023-07-31T15:11:59;19.00;99.90
52397;DHT22;38322;53.108;6.308;2023-07-31T15:14:25;19.00;99.90
52397;DHT22;38322;53.108;6.308;2023-07-31T15:16:53;19.00;99.90
52397;DHT22;38322;53.108;6.308;2023-07-31T15:19:19;19.00;99.90
52397;DHT22;38322;53.108;6.308;2023-07-31T15:21:45;19.00;99.90
52397;DHT22;38322;53.108;6.308;2023-07-31T15:24:10;19.00;99.90
52397;DHT22;38322;53.108;6.308;2023-07-31T15:26:37;19.00;99.90
52397;DHT22;38322;53.108;6.308;2023-07-31T15:29:05;19.00;99.90
52397;DHT22;38322;53.108;6.308;2023-07-31T15:31:40;19.00;99.90
52397;DHT22;38322;53.108;6.308;2023-07-31T15:34:06;19.00;99.90
52397;DHT22;38322;53.108;6.308;2023-07-31T15:36:32;18.90;99.90
52397;DHT22;38322;53.108;6.308;2023-07-31T15:38:59;19.00;99.90
52397;DHT22;38322;53.108;6.308;2023-07-31T15:41:25;19.00;99.90
52397;DHT22;38322;53.108;6.308;2023-07-31T15:43:51;19.00;99.90
52397;DHT22;38322;53.108;6.308;2023-07-31T15:46:17;19.00;99.90
52397;DHT22;38322;53.108;6.308;2023-07-31T15:48:44;19.00;99.90
52397;DHT22;38322;53.108;6.308;2023-07-31T15:51:10;19.10;99.90
52397;DHT22;38322;53.108;6.308;2023-07-31T15:53:36;19.10;99.90
52397;DHT22;38322;53.108;6.308;2023-07-31T15:56:02;19.10;99.90
52397;DHT22;38322;53.108;6.308;2023-07-31T15:58:28;19.10;99.90
52397;DHT22;38322;53.108;6.308;2023-07-31T16:00:54;19.00;99.90
52397;DHT22;38322;53.108;6.308;2023-07-31T16:03:20;19.00;99.90
52397;DHT22;38322;53.108;6.308;2023-07-31T16:05:47;19.00;99.90
52397;DHT22;38322;53.108;6.308;2023-07-31T16:08:14;19.00;99.90
52397;DHT22;38322;53.108;6.308;2023-07-31T16:10:40;19.10;99.90
52397;DHT22;38322;53.108;6.308;2023-07-31T16:13:05;19.10;99.90
52397;DHT22;38322;53.108;6.308;2023-07-31T16:15:32;19.20;99.90
52397;DHT22;38322;53.108;6.308;2023-07-31T16:17:57;19.20;99.90
52397;DHT22;38322;53.108;6.308;2023-07-31T16:20:23;19.20;99.90
52397;DHT22;38322;53.108;6.308;2023-07-31T16:22:49;19.10;99.90
52397;DHT22;38322;53.108;6.308;2023-07-31T16:25:17;19.20;99.90
52397;DHT22;38322;53.108;6.308;2023-07-31T16:27:43;19.20;99.90
52397;DHT22;38322;53.108;6.308;2023-07-31T16:30:09;19.20;99.90
52397;DHT22;38322;53.108;6.308;2023-07-31T16:32:35;19.20;99.90
52397;DHT22;38322;53.108;6.308;2023-07-31T16:35:02;19.20;99.90
52397;DHT22;38322;53.108;6.308;2023-07-31T16:37:29;19.10;99.90
52397;DHT22;38322;53.108;6.308;2023-07-31T16:39:55;19.20;99.90
52397;DHT22;38322;53.108;6.308;2023-07-31T16:42:21;19.10;99.90
52397;DHT22;38322;53.108;6.308;2023-07-31T16:44:48;19.10;99.90
52397;DHT22;38322;53.108;6.308;2023-07-31T16:47:14;19.00;99.90
52397;DHT22;38322;53.108;6.308;2023-07-31T16:49:40;19.00;99.90
52397;DHT22;38322;53.108;6.308;2023-07-31T16:52:06;19.00;99.90
52397;DHT22;38322;53.108;6.308;2023-07-31T16:54:33;19.00;99.90
52397;DHT22;38322;53.108;6.308;2023-07-31T16:56:59;19.00;99.90
52397;DHT22;38322;53.108;6.308;2023-07-31T16:59:25;19.00;99.90
52397;DHT22;38322;53.108;6.308;2023-07-31T17:01:51;19.00;99.90
52397;DHT22;38322;53.108;6.308;2023-07-31T17:04:17;18.90;99.90
52397;DHT22;38322;53.108;6.308;2023-07-31T17:06:43;18.90;99.90
52397;DHT22;38322;53.108;6.308;2023-07-31T17:09:09;18.90;99.90
52397;DHT22;38322;53.108;6.308;2023-07-31T17:11:36;18.90;99.90
52397;DHT22;38322;53.108;6.308;2023-07-31T17:14:02;18.90;99.90
52397;DHT22;38322;53.108;6.308;2023-07-31T17:16:34;18.90;99.90
52397;DHT22;38322;53.108;6.308;2023-07-31T17:19:01;18.90;99.90
52397;DHT22;38322;53.108;6.308;2023-07-31T17:21:27;18.90;99.90
52397;DHT22;38322;53.108;6.308;2023-07-31T17:23:53;18.80;99.90
52397;DHT22;38322;53.108;6.308;2023-07-31T17:26:19;18.80;99.90
52397;DHT22;38322;53.108;6.308;2023-07-31T17:28:45;18.80;99.90
52397;DHT22;38322;53.108;6.308;2023-07-31T17:31:11;18.80;99.90
52397;DHT22;38322;53.108;6.308;2023-07-31T17:33:39;18.80;99.90
52397;DHT22;38322;53.108;6.308;2023-07-31T17:36:05;18.80;99.90
52397;DHT22;38322;53.108;6.308;2023-07-31T17:38:31;18.70;99.90
52397;DHT22;38322;53.108;6.308;2023-07-31T17:40:57;18.70;99.90
52397;DHT22;38322;53.108;6.308;2023-07-31T17:43:23;18.70;99.90
52397;DHT22;38322;53.108;6.308;2023-07-31T17:45:50;18.70;99.90
52397;DHT22;38322;53.108;6.308;2023-07-31T17:48:16;18.70;99.90
52397;DHT22;38322;53.108;6.308;2023-07-31T17:50:42;18.70;99.90
52397;DHT22;38322;53.108;6.308;2023-07-31T17:53:08;18.60;99.90
52397;DHT22;38322;53.108;6.308;2023-07-31T17:55:34;18.60;99.90
52397;DHT22;38322;53.108;6.308;2023-07-31T17:58:00;18.60;99.90
52397;DHT22;38322;53.108;6.308;2023-07-31T18:00:26;18.60;99.90
52397;DHT22;38322;53.108;6.308;2023-07-31T18:02:52;18.60;99.90
52397;DHT22;38322;53.108;6.308;2023-07-31T18:05:18;18.60;99.90
52397;DHT22;38322;53.108;6.308;2023-07-31T18:07:44;18.60;99.90
52397;DHT22;38322;53.108;6.308;2023-07-31T18:10:09;18.70;99.90
52397;DHT22;38322;53.108;6.308;2023-07-31T18:12:38;18.70;99.90
52397;DHT22;38322;53.108;6.308;2023-07-31T18:15:05;18.70;99.90
52397;DHT22;38322;53.108;6.308;2023-07-31T18:17:31;18.80;99.90
52397;DHT22;38322;53.108;6.308;2023-07-31T18:19:57;18.80;99.90
52397;DHT22;38322;53.108;6.308;2023-07-31T18:22:22;18.80;99.90
52397;DHT22;38322;53.108;6.308;2023-07-31T18:24:48;18.80;99.90
52397;DHT22;38322;53.108;6.308;2023-07-31T18:27:14;18.80;99.90
52397;DHT22;38322;53.108;6.308;2023-07-31T18:29:41;18.80;99.90
52397;DHT22;38322;53.108;6.308;2023-07-31T18:32:07;18.80;99.90
52397;DHT22;38322;53.108;6.308;2023-07-31T18:34:34;18.70;99.90
52397;DHT22;38322;53.108;6.308;2023-07-31T18:37:00;18.70;99.90
52397;DHT22;38322;53.108;6.308;2023-07-31T18:39:26;18.70;99.90
52397;DHT22;38322;53.108;6.308;2023-07-31T18:41:52;18.70;99.90
52397;DHT22;38322;53.108;6.308;2023-07-31T18:44:17;18.70;99.90
52397;DHT22;38322;53.108;6.308;2023-07-31T18:46:43;18.60;99.90
52397;DHT22;38322;53.108;6.308;2023-07-31T18:49:09;18.60;99.90
52397;DHT22;38322;53.108;6.308;2023-07-31T18:51:35;18.60;99.90
52397;DHT22;38322;53.108;6.308;2023-07-31T18:54:04;18.60;99.90
52397;DHT22;38322;53.108;6.308;2023-07-31T18:56:30;18.60;99.90
52397;DHT22;38322;53.108;6.308;2023-07-31T18:58:56;18.60;99.90
52397;DHT22;38322;53.108;6.308;2023-07-31T19:01:23;18.50;99.90
52397;DHT22;38322;53.108;6.308;2023-07-31T19:03:49;18.50;99.90
52397;DHT22;38322;53.108;6.308;2023-07-31T19:06:15;18.50;99.90
52397;DHT22;38322;53.108;6.308;2023-07-31T19:08:41;18.50;99.90
52397;DHT22;38322;53.108;6.308;2023-07-31T19:11:08;18.50;99.90
52397;DHT22;38322;53.108;6.308;2023-07-31T19:13:37;18.40;99.90
52397;DHT22;38322;53.108;6.308;2023-07-31T19:16:03;18.40;99.90
52397;DHT22;38322;53.108;6.308;2023-07-31T19:18:30;18.40;99.90
52397;DHT22;38322;53.108;6.308;2023-07-31T19:20:56;18.30;99.90
52397;DHT22;38322;53.108;6.308;2023-07-31T19:23:22;18.30;99.90
52397;DHT22;38322;53.108;6.308;2023-07-31T19:25:48;18.20;99.90
52397;DHT22;38322;53.108;6.308;2023-07-31T19:28:14;18.20;99.90
52397;DHT22;38322;53.108;6.308;2023-07-31T19:30:41;18.20;99.90
52397;DHT22;38322;53.108;6.308;2023-07-31T19:33:07;18.20;99.90
52397;DHT22;38322;53.108;6.308;2023-07-31T19:35:33;18.10;99.90
52397;DHT22;38322;53.108;6.308;2023-07-31T19:37:59;18.10;99.90
52397;DHT22;38322;53.108;6.308;2023-07-31T19:40:25;18.10;99.90
52397;DHT22;38322;53.108;6.308;2023-07-31T19:42:51;18.10;99.90
52397;DHT22;38322;53.108;6.308;2023-07-31T19:45:17;18.10;99.90
52397;DHT22;38322;53.108;6.308;2023-07-31T19:47:43;18.00;99.90
52397;DHT22;38322;53.108;6.308;2023-07-31T19:50:10;17.90;99.90
52397;DHT22;38322;53.108;6.308;2023-07-31T19:52:36;17.80;99.90
52397;DHT22;38322;53.108;6.308;2023-07-31T19:55:02;17.70;99.90
52397;DHT22;38322;53.108;6.308;2023-07-31T19:57:27;17.70;99.90
52397;DHT22;38322;53.108;6.308;2023-07-31T19:59:53;17.70;99.90
